Dison, Belgium
Current Conditions -  °F | °C
As of 7:20 AM on Wednesday 26 Nov 2014 (Local Time) from EBLG Reporting Station
Clear Clear  
Wind Chill: 41°   Ceiling: Unl
Heat Index: 41°   Visibility: 4mi
Dew Point: 37°   Wind: 3mph
Humidity: 87%   Direction: 20°NNE
Pressure: 29.94"   Gusts: NA
Location:  50.61°N, 5.85°E
Report Text: EBLG 260620Z 02003KT 7000 NSC 05/03 Q1014 NOSIG
Loading
Personal Weather Stations






























Interactive Weather Map New forecast layout! Learn more

10-Day Weather Forecast

Advertisements
Track Severe Weather on mobile